This is the latest recevied weather packets stored in our database for station/object EA2DXT-10. If no packets are shown the sender has not sent any weather packets the latest 10 day(s).
| Time | Temp. | Humidity | Pressure | Rain* | Wind** | Luminosity | Snow |
|---|---|---|---|---|---|---|---|
| 1777304332 | 21.11° C | 52% | 950.2 hPa | - | - | - | - |
| 1777300732 | 22.22° C | 50% | 950.7 hPa | - | - | - | - |
| 1777299831 | 23.33° C | 50% | 950.9 hPa | - | - | - | - |
| 1777295331 | 26.11° C | 50% | 951.2 hPa | - | - | - | - |
| 1777293530 | 27.22° C | 49% | 951.4 hPa | - | - | - | - |
| 1777292630 | 28.33° C | 48% | 951.6 hPa | - | - | - | - |
| 1777291730 | 28.89° C | 49% | 951.7 hPa | - | - | - | - |
| 1777289029 | 30.56° C | 47% | 952 hPa | - | - | - | - |
| 1777288129 | 27.78° C | 49% | 952.1 hPa | - | - | - | - |
| 1777287229 | 26.11° C | 50% | 952.3 hPa | - | - | - | - |
| 1777286328 | 25° C | 51% | 952.4 hPa | - | - | - | - |
| 1777285427 | 25.56° C | 51% | 952.6 hPa | - | - | - | - |
| 1777284527 | 26.67° C | 51% | 952.7 hPa | - | - | - | - |
| 1777282727 | 29.44° C | 48% | 952.8 hPa | - | - | - | - |
| 1777281827 | 28.89° C | 48% | 952.8 hPa | - | - | - | - |
| 1777280927 | 26.11° C | 49% | 952.9 hPa | - | - | - | - |
| 1777280026 | 23.33° C | 51% | 952.9 hPa | - | - | - | - |
| 1777279126 | 25° C | 50% | 952.9 hPa | - | - | - | - |
| 1777278226 | 23.89° C | 45% | 952.8 hPa | - | - | - | - |
| 1777277326 | 26.11° C | 41% | 952.7 hPa | - | - | - | - |
| 1777276426 | 20° C | 57% | 952.9 hPa | - | - | - | - |
| 1777275525 | 17.78° C | 63% | 953 hPa | - | - | - | - |
| 1777274625 | 17.78° C | 64% | 953 hPa | - | - | - | - |
| 1777273725 | 15.56° C | 71% | 953.1 hPa | - | - | - | - |
| 1777272825 | 16.11° C | 69% | 952.9 hPa | - | - | - | - |
* Rain since midnight (hover to see other rain measurements)
** Current wind speed in m/s (hover to see current wind gust speed)